sensor_id;sensor_type;location;lat;lon;timestamp;pressure;altitude;pressure_sealevel;temperature;humidity
72226;BME280;60130;52.250;5.048;2023-02-26T00:00:00;389.9;;;4.6;65.2
72226;BME280;60130;52.250;5.048;2023-02-26T00:05:00;389.9;;;4.6;65.2
72226;BME280;60130;52.250;5.048;2023-02-26T00:10:00;389.9;;;4.6;64.8
72226;BME280;60130;52.250;5.048;2023-02-26T00:15:00;390.0;;;4.7;64.6
72226;BME280;60130;52.250;5.048;2023-02-26T00:20:00;389.9;;;4.6;64.5
72226;BME280;60130;52.250;5.048;2023-02-26T00:25:00;389.9;;;4.6;64.0
72226;BME280;60130;52.250;5.048;2023-02-26T00:30:01;389.8;;;4.5;63.3
72226;BME280;60130;52.250;5.048;2023-02-26T00:35:01;389.8;;;4.4;64.1
72226;BME280;60130;52.250;5.048;2023-02-26T00:40:11;389.7;;;4.3;65.1
72226;BME280;60130;52.250;5.048;2023-02-26T00:45:00;389.6;;;4.2;64.5
72226;BME280;60130;52.250;5.048;2023-02-26T00:50:05;389.5;;;3.9;63.7
72226;BME280;60130;52.250;5.048;2023-02-26T00:55:00;389.3;;;3.7;63.2
72226;BME280;60130;52.250;5.048;2023-02-26T01:00:00;389.3;;;3.7;63.2
72226;BME280;60130;52.250;5.048;2023-02-26T01:05:01;389.2;;;3.6;64.2
72226;BME280;60130;52.250;5.048;2023-02-26T01:10:00;389.1;;;3.4;64.8
72226;BME280;60130;52.250;5.048;2023-02-26T01:15:00;389.1;;;3.4;63.1
72226;BME280;60130;52.250;5.048;2023-02-26T01:20:02;389.0;;;3.4;63.7
72226;BME280;60130;52.250;5.048;2023-02-26T01:25:03;389.1;;;3.4;63.4
72226;BME280;60130;52.250;5.048;2023-02-26T01:30:00;389.1;;;3.5;63.2
72226;BME280;60130;52.250;5.048;2023-02-26T01:35:04;389.1;;;3.4;62.7
72226;BME280;60130;52.250;5.048;2023-02-26T01:45:03;389.1;;;3.4;61.8
72226;BME280;60130;52.250;5.048;2023-02-26T01:50:11;389.0;;;3.3;61.7
72226;BME280;60130;52.250;5.048;2023-02-26T01:55:00;389.0;;;3.2;61.6
72226;BME280;60130;52.250;5.048;2023-02-26T02:00:00;389.0;;;3.2;62.1
72226;BME280;60130;52.250;5.048;2023-02-26T02:05:02;388.9;;;3.2;62.4
72226;BME280;60130;52.250;5.048;2023-02-26T02:10:00;388.9;;;3.2;62.1
72226;BME280;60130;52.250;5.048;2023-02-26T02:15:06;388.9;;;3.2;62.2
72226;BME280;60130;52.250;5.048;2023-02-26T02:25:08;388.9;;;3.1;61.7
72226;BME280;60130;52.250;5.048;2023-02-26T02:30:05;388.9;;;3.1;61.9
72226;BME280;60130;52.250;5.048;2023-02-26T02:35:08;388.9;;;3.1;61.5
72226;BME280;60130;52.250;5.048;2023-02-26T02:40:03;388.8;;;3.1;61.5
72226;BME280;60130;52.250;5.048;2023-02-26T02:45:04;388.9;;;3.1;61.1
72226;BME280;60130;52.250;5.048;2023-02-26T02:50:04;388.9;;;3.1;60.9
72226;BME280;60130;52.250;5.048;2023-02-26T02:55:04;388.9;;;3.1;60.9
72226;BME280;60130;52.250;5.048;2023-02-26T03:00:03;388.8;;;3.0;61.1
72226;BME280;60130;52.250;5.048;2023-02-26T03:05:00;388.8;;;3.0;61.2
72226;BME280;60130;52.250;5.048;2023-02-26T03:10:00;388.8;;;3.0;59.9
72226;BME280;60130;52.250;5.048;2023-02-26T03:15:00;388.8;;;3.0;60.1
72226;BME280;60130;52.250;5.048;2023-02-26T03:20:10;388.8;;;3.0;60.0
72226;BME280;60130;52.250;5.048;2023-02-26T03:25:04;388.7;;;2.9;60.5
72226;BME280;60130;52.250;5.048;2023-02-26T03:30:04;388.8;;;3.0;60.2
72226;BME280;60130;52.250;5.048;2023-02-26T03:35:04;388.8;;;3.0;60.0
72226;BME280;60130;52.250;5.048;2023-02-26T03:40:03;388.7;;;2.9;60.8
72226;BME280;60130;52.250;5.048;2023-02-26T03:45:03;388.7;;;2.8;61.0
72226;BME280;60130;52.250;5.048;2023-02-26T03:50:03;388.7;;;2.8;61.1
72226;BME280;60130;52.250;5.048;2023-02-26T03:55:04;388.7;;;2.8;60.4
72226;BME280;60130;52.250;5.048;2023-02-26T04:00:00;388.7;;;2.8;60.2
72226;BME280;60130;52.250;5.048;2023-02-26T04:05:04;388.6;;;2.7;60.6
72226;BME280;60130;52.250;5.048;2023-02-26T04:10:00;388.6;;;2.7;61.3
72226;BME280;60130;52.250;5.048;2023-02-26T04:15:00;388.6;;;2.6;61.0
72226;BME280;60130;52.250;5.048;2023-02-26T04:20:00;388.5;;;2.6;61.1
72226;BME280;60130;52.250;5.048;2023-02-26T04:25:00;388.5;;;2.6;61.2
72226;BME280;60130;52.250;5.048;2023-02-26T04:30:00;388.5;;;2.5;61.4
72226;BME280;60130;52.250;5.048;2023-02-26T04:35:00;388.5;;;2.5;61.9
72226;BME280;60130;52.250;5.048;2023-02-26T04:40:00;388.4;;;2.5;62.0
72226;BME280;60130;52.250;5.048;2023-02-26T04:45:00;388.4;;;2.3;62.2
72226;BME280;60130;52.250;5.048;2023-02-26T04:50:00;388.3;;;2.3;62.8
72226;BME280;60130;52.250;5.048;2023-02-26T04:55:00;388.3;;;2.2;62.9
72226;BME280;60130;52.250;5.048;2023-02-26T05:00:00;388.4;;;2.3;62.6
72226;BME280;60130;52.250;5.048;2023-02-26T05:05:00;388.4;;;2.4;62.3
72226;BME280;60130;52.250;5.048;2023-02-26T05:10:00;388.4;;;2.4;62.1
72226;BME280;60130;52.250;5.048;2023-02-26T05:15:00;388.4;;;2.4;62.8
72226;BME280;60130;52.250;5.048;2023-02-26T05:20:00;388.4;;;2.4;62.8
72226;BME280;60130;52.250;5.048;2023-02-26T05:25:00;388.4;;;2.4;62.8
72226;BME280;60130;52.250;5.048;2023-02-26T05:30:00;388.4;;;2.4;62.7
72226;BME280;60130;52.250;5.048;2023-02-26T05:35:00;388.3;;;2.2;63.9
72226;BME280;60130;52.250;5.048;2023-02-26T05:40:00;388.2;;;2.2;63.9
72226;BME280;60130;52.250;5.048;2023-02-26T05:45:00;388.2;;;2.1;64.1
72226;BME280;60130;52.250;5.048;2023-02-26T05:50:00;388.3;;;2.2;64.7
72226;BME280;60130;52.250;5.048;2023-02-26T05:55:00;388.3;;;2.2;64.5
72226;BME280;60130;52.250;5.048;2023-02-26T06:00:00;388.3;;;2.2;64.8
72226;BME280;60130;52.250;5.048;2023-02-26T06:05:00;388.2;;;2.2;64.9
72226;BME280;60130;52.250;5.048;2023-02-26T06:10:00;388.2;;;2.1;64.8
72226;BME280;60130;52.250;5.048;2023-02-26T06:15:00;388.2;;;2.1;64.4
72226;BME280;60130;52.250;5.048;2023-02-26T06:20:00;388.2;;;2.1;64.8
72226;BME280;60130;52.250;5.048;2023-02-26T06:25:00;388.1;;;1.9;65.1
72226;BME280;60130;52.250;5.048;2023-02-26T06:30:00;388.1;;;1.9;64.2
72226;BME280;60130;52.250;5.048;2023-02-26T06:35:00;388.1;;;1.9;65.0
72226;BME280;60130;52.250;5.048;2023-02-26T06:40:00;388.0;;;1.9;64.8
72226;BME280;60130;52.250;5.048;2023-02-26T06:45:00;388.0;;;1.9;65.0
72226;BME280;60130;52.250;5.048;2023-02-26T06:50:00;387.9;;;1.7;66.1
72226;BME280;60130;52.250;5.048;2023-02-26T06:55:00;387.9;;;1.7;66.1
72226;BME280;60130;52.250;5.048;2023-02-26T07:00:00;387.8;;;1.6;66.5
72226;BME280;60130;52.250;5.048;2023-02-26T07:05:00;387.8;;;1.5;66.7
72226;BME280;60130;52.250;5.048;2023-02-26T07:10:00;387.8;;;1.6;66.2
72226;BME280;60130;52.250;5.048;2023-02-26T07:15:00;387.9;;;1.7;65.7
72226;BME280;60130;52.250;5.048;2023-02-26T07:20:00;388.0;;;1.8;65.5
72226;BME280;60130;52.250;5.048;2023-02-26T07:25:00;388.0;;;1.8;65.8
72226;BME280;60130;52.250;5.048;2023-02-26T07:30:00;388.0;;;1.9;65.5
72226;BME280;60130;52.250;5.048;2023-02-26T07:35:00;388.1;;;2.0;65.4
72226;BME280;60130;52.250;5.048;2023-02-26T07:40:00;388.2;;;2.1;65.1
72226;BME280;60130;52.250;5.048;2023-02-26T07:45:00;388.3;;;2.3;65.1
72226;BME280;60130;52.250;5.048;2023-02-26T07:50:00;388.4;;;2.4;63.9
72226;BME280;60130;52.250;5.048;2023-02-26T07:55:00;unavailable;;;unavailable;unavailable
72226;BME280;60130;52.250;5.048;2023-02-26T08:00:00;388.5;;;2.6;62.7
72226;BME280;60130;52.250;5.048;2023-02-26T08:05:00;388.7;;;2.8;61.7
72226;BME280;60130;52.250;5.048;2023-02-26T08:10:00;388.8;;;3.0;61.0
72226;BME280;60130;52.250;5.048;2023-02-26T08:15:00;388.8;;;3.0;59.8
72226;BME280;60130;52.250;5.048;2023-02-26T08:20:00;388.9;;;3.2;60.5
72226;BME280;60130;52.250;5.048;2023-02-26T08:25:00;389.1;;;3.4;60.5
72226;BME280;60130;52.250;5.048;2023-02-26T08:30:00;389.0;;;3.3;59.1
72226;BME280;60130;52.250;5.048;2023-02-26T08:35:00;389.1;;;3.4;59.1
72226;BME280;60130;52.250;5.048;2023-02-26T08:40:00;389.0;;;3.3;58.2
72226;BME280;60130;52.250;5.048;2023-02-26T08:45:00;389.0;;;3.3;57.6
72226;BME280;60130;52.250;5.048;2023-02-26T08:50:01;389.2;;;3.6;57.9
72226;BME280;60130;52.250;5.048;2023-02-26T08:55:01;389.3;;;3.7;58.0
72226;BME280;60130;52.250;5.048;2023-02-26T09:00:02;389.3;;;3.7;57.3
72226;BME280;60130;52.250;5.048;2023-02-26T09:05:01;389.2;;;3.5;57.3
72226;BME280;60130;52.250;5.048;2023-02-26T09:10:00;389.3;;;3.7;56.9
72226;BME280;60130;52.250;5.048;2023-02-26T09:15:00;389.4;;;3.9;56.6
72226;BME280;60130;52.250;5.048;2023-02-26T09:20:00;389.5;;;4.0;56.6
72226;BME280;60130;52.250;5.048;2023-02-26T09:25:00;389.5;;;4.0;56.7
72226;BME280;60130;52.250;5.048;2023-02-26T09:30:00;389.7;;;4.2;56.7
72226;BME280;60130;52.250;5.048;2023-02-26T09:35:00;389.8;;;4.4;56.7
72226;BME280;60130;52.250;5.048;2023-02-26T09:40:00;389.7;;;4.3;56.0
72226;BME280;60130;52.250;5.048;2023-02-26T09:45:00;389.9;;;4.6;57.1
72226;BME280;60130;52.250;5.048;2023-02-26T09:50:03;390.1;;;4.9;55.4
72226;BME280;60130;52.250;5.048;2023-02-26T09:55:03;390.1;;;4.8;55.2
72226;BME280;60130;52.250;5.048;2023-02-26T10:00:02;390.0;;;4.8;55.4
72226;BME280;60130;52.250;5.048;2023-02-26T10:05:09;390.1;;;4.8;55.4
72226;BME280;60130;52.250;5.048;2023-02-26T10:10:10;390.1;;;4.8;55.0
72226;BME280;60130;52.250;5.048;2023-02-26T10:15:02;390.1;;;4.9;55.8
72226;BME280;60130;52.250;5.048;2023-02-26T10:20:05;390.2;;;5.0;55.3
72226;BME280;60130;52.250;5.048;2023-02-26T10:25:02;390.3;;;5.1;54.7
72226;BME280;60130;52.250;5.048;2023-02-26T10:30:04;390.4;;;5.2;55.3
72226;BME280;60130;52.250;5.048;2023-02-26T10:35:02;390.4;;;5.2;55.9
72226;BME280;60130;52.250;5.048;2023-02-26T10:40:07;390.5;;;5.4;55.7
72226;BME280;60130;52.250;5.048;2023-02-26T10:45:10;390.5;;;5.4;55.2
72226;BME280;60130;52.250;5.048;2023-02-26T10:50:02;390.5;;;5.4;55.0
72226;BME280;60130;52.250;5.048;2023-02-26T10:55:05;390.6;;;5.7;55.3
72226;BME280;60130;52.250;5.048;2023-02-26T11:00:01;390.8;;;5.9;56.3
72226;BME280;60130;52.250;5.048;2023-02-26T11:05:01;390.6;;;5.6;55.3
72226;BME280;60130;52.250;5.048;2023-02-26T11:10:01;390.8;;;5.8;55.2
72226;BME280;60130;52.250;5.048;2023-02-26T11:15:00;390.8;;;5.9;55.2
72226;BME280;60130;52.250;5.048;2023-02-26T11:20:04;390.8;;;5.9;55.6
72226;BME280;60130;52.250;5.048;2023-02-26T11:25:01;390.8;;;5.9;55.4
72226;BME280;60130;52.250;5.048;2023-02-26T11:30:04;390.9;;;6.0;54.7
72226;BME280;60130;52.250;5.048;2023-02-26T11:35:00;391.0;;;6.3;55.1
72226;BME280;60130;52.250;5.048;2023-02-26T11:40:04;391.2;;;6.5;53.7
72226;BME280;60130;52.250;5.048;2023-02-26T11:45:00;391.2;;;6.4;53.5
72226;BME280;60130;52.250;5.048;2023-02-26T11:50:03;unavailable;;;unavailable;unavailable
72226;BME280;60130;52.250;5.048;2023-02-26T11:55:02;unavailable;;;unavailable;unavailable
72226;BME280;60130;52.250;5.048;2023-02-26T12:00:16;391.4;;;6.8;54.1
72226;BME280;60130;52.250;5.048;2023-02-26T12:05:05;391.4;;;6.7;52.5
72226;BME280;60130;52.250;5.048;2023-02-26T12:10:00;391.3;;;6.6;52.6
72226;BME280;60130;52.250;5.048;2023-02-26T12:15:13;391.2;;;6.4;56.0
72226;BME280;60130;52.250;5.048;2023-02-26T12:20:08;391.1;;;6.4;57.8
72226;BME280;60130;52.250;5.048;2023-02-26T12:25:08;391.0;;;6.2;58.2
72226;BME280;60130;52.250;5.048;2023-02-26T12:30:05;391.1;;;6.4;58.5
72226;BME280;60130;52.250;5.048;2023-02-26T12:35:14;391.1;;;6.3;59.1
72226;BME280;60130;52.250;5.048;2023-02-26T12:40:07;391.4;;;6.8;57.8
72226;BME280;60130;52.250;5.048;2023-02-26T12:45:13;391.6;;;7.0;56.6
72226;BME280;60130;52.250;5.048;2023-02-26T12:50:12;391.2;;;6.5;56.7
72226;BME280;60130;52.250;5.048;2023-02-26T12:55:09;391.2;;;6.5;58.3
72226;BME280;60130;52.250;5.048;2023-02-26T13:00:09;391.4;;;6.7;56.2
72226;BME280;60130;52.250;5.048;2023-02-26T13:05:13;391.4;;;6.7;56.2
72226;BME280;60130;52.250;5.048;2023-02-26T13:10:04;391.3;;;6.6;54.6
72226;BME280;60130;52.250;5.048;2023-02-26T13:15:13;391.1;;;6.4;56.0
72226;BME280;60130;52.250;5.048;2023-02-26T13:20:08;391.2;;;6.5;56.4
72226;BME280;60130;52.250;5.048;2023-02-26T13:25:03;391.4;;;6.8;55.2
72226;BME280;60130;52.250;5.048;2023-02-26T13:30:09;391.5;;;7.0;55.5
72226;BME280;60130;52.250;5.048;2023-02-26T13:35:05;391.8;;;7.3;56.2
72226;BME280;60130;52.250;5.048;2023-02-26T13:40:20;391.8;;;7.4;55.1
72226;BME280;60130;52.250;5.048;2023-02-26T13:45:13;391.8;;;7.3;55.6
72226;BME280;60130;52.250;5.048;2023-02-26T13:50:09;391.7;;;7.2;55.7
72226;BME280;60130;52.250;5.048;2023-02-26T13:55:02;391.8;;;7.4;56.5
72226;BME280;60130;52.250;5.048;2023-02-26T14:00:06;391.6;;;7.1;56.6
72226;BME280;60130;52.250;5.048;2023-02-26T14:05:00;391.6;;;7.0;55.7
72226;BME280;60130;52.250;5.048;2023-02-26T14:10:02;391.7;;;7.3;56.5
72226;BME280;60130;52.250;5.048;2023-02-26T14:15:17;391.8;;;7.3;56.7
72226;BME280;60130;52.250;5.048;2023-02-26T14:20:15;391.7;;;7.2;55.1
72226;BME280;60130;52.250;5.048;2023-02-26T14:25:12;391.5;;;7.0;55.8
72226;BME280;60130;52.250;5.048;2023-02-26T14:30:14;391.5;;;7.0;55.6
72226;BME280;60130;52.250;5.048;2023-02-26T14:35:04;391.5;;;6.9;56.1
72226;BME280;60130;52.250;5.048;2023-02-26T14:40:04;391.5;;;6.9;55.6
72226;BME280;60130;52.250;5.048;2023-02-26T14:45:05;391.5;;;6.8;57.2
72226;BME280;60130;52.250;5.048;2023-02-26T14:50:01;391.4;;;6.8;57.2
72226;BME280;60130;52.250;5.048;2023-02-26T14:55:08;391.4;;;6.7;55.9
72226;BME280;60130;52.250;5.048;2023-02-26T15:00:08;391.4;;;6.8;56.5
72226;BME280;60130;52.250;5.048;2023-02-26T15:05:13;391.4;;;6.7;55.4
72226;BME280;60130;52.250;5.048;2023-02-26T15:10:13;391.4;;;6.7;55.5
72226;BME280;60130;52.250;5.048;2023-02-26T15:15:09;391.3;;;6.7;55.0
72226;BME280;60130;52.250;5.048;2023-02-26T15:20:08;391.3;;;6.7;56.0
72226;BME280;60130;52.250;5.048;2023-02-26T15:25:00;391.3;;;6.6;57.6
72226;BME280;60130;52.250;5.048;2023-02-26T15:30:00;391.3;;;6.6;59.0
72226;BME280;60130;52.250;5.048;2023-02-26T15:35:05;391.2;;;6.5;57.7
72226;BME280;60130;52.250;5.048;2023-02-26T15:40:03;391.3;;;6.6;58.1
72226;BME280;60130;52.250;5.048;2023-02-26T15:45:01;391.2;;;6.5;58.2
72226;BME280;60130;52.250;5.048;2023-02-26T15:50:00;391.1;;;6.3;58.6
72226;BME280;60130;52.250;5.048;2023-02-26T15:55:03;391.1;;;6.4;58.7
72226;BME280;60130;52.250;5.048;2023-02-26T16:00:05;391.1;;;6.4;59.6
72226;BME280;60130;52.250;5.048;2023-02-26T16:05:00;391.2;;;6.4;59.7
72226;BME280;60130;52.250;5.048;2023-02-26T16:10:04;391.3;;;6.6;59.8
72226;BME280;60130;52.250;5.048;2023-02-26T16:15:03;391.1;;;6.4;59.2
72226;BME280;60130;52.250;5.048;2023-02-26T16:20:03;391.0;;;6.1;60.4
72226;BME280;60130;52.250;5.048;2023-02-26T16:25:03;390.9;;;5.9;60.4
72226;BME280;60130;52.250;5.048;2023-02-26T16:30:02;390.8;;;5.9;61.6
72226;BME280;60130;52.250;5.048;2023-02-26T16:35:09;390.7;;;5.8;61.6
72226;BME280;60130;52.250;5.048;2023-02-26T16:40:15;390.7;;;5.8;60.4
72226;BME280;60130;52.250;5.048;2023-02-26T16:50:00;390.6;;;5.6;60.6
72226;BME280;60130;52.250;5.048;2023-02-26T16:55:03;390.5;;;5.5;62.0
72226;BME280;60130;52.250;5.048;2023-02-26T17:00:05;390.5;;;5.4;62.3
72226;BME280;60130;52.250;5.048;2023-02-26T17:05:01;390.5;;;5.4;62.5
72226;BME280;60130;52.250;5.048;2023-02-26T17:10:06;390.4;;;5.3;62.2
72226;BME280;60130;52.250;5.048;2023-02-26T17:15:00;390.3;;;5.2;62.6
72226;BME280;60130;52.250;5.048;2023-02-26T17:20:00;390.3;;;5.1;63.0
72226;BME280;60130;52.250;5.048;2023-02-26T17:25:00;390.2;;;5.1;62.5
72226;BME280;60130;52.250;5.048;2023-02-26T17:30:02;390.2;;;5.0;62.0
72226;BME280;60130;52.250;5.048;2023-02-26T17:35:00;390.2;;;5.0;61.8
72226;BME280;60130;52.250;5.048;2023-02-26T17:40:00;390.2;;;5.0;61.9
72226;BME280;60130;52.250;5.048;2023-02-26T17:45:00;390.2;;;5.0;62.5
72226;BME280;60130;52.250;5.048;2023-02-26T17:50:00;390.1;;;4.9;63.1
72226;BME280;60130;52.250;5.048;2023-02-26T17:55:00;390.1;;;4.9;63.6
72226;BME280;60130;52.250;5.048;2023-02-26T18:00:00;390.1;;;4.9;64.0
72226;BME280;60130;52.250;5.048;2023-02-26T18:05:00;390.0;;;4.8;63.6
72226;BME280;60130;52.250;5.048;2023-02-26T18:10:00;390.0;;;4.8;63.8
72226;BME280;60130;52.250;5.048;2023-02-26T18:15:00;390.0;;;4.7;64.3
72226;BME280;60130;52.250;5.048;2023-02-26T18:20:00;390.0;;;4.7;64.8
72226;BME280;60130;52.250;5.048;2023-02-26T18:25:00;389.9;;;4.6;65.3
72226;BME280;60130;52.250;5.048;2023-02-26T18:30:00;389.8;;;4.5;65.5
72226;BME280;60130;52.250;5.048;2023-02-26T18:35:00;389.8;;;4.5;65.6
72226;BME280;60130;52.250;5.048;2023-02-26T18:40:00;389.8;;;4.4;65.6
72226;BME280;60130;52.250;5.048;2023-02-26T18:45:00;389.8;;;4.4;66.0
72226;BME280;60130;52.250;5.048;2023-02-26T18:50:00;389.8;;;4.4;66.1
72226;BME280;60130;52.250;5.048;2023-02-26T18:55:00;389.7;;;4.4;66.3
72226;BME280;60130;52.250;5.048;2023-02-26T19:00:00;389.7;;;4.3;66.4
72226;BME280;60130;52.250;5.048;2023-02-26T19:05:00;389.6;;;4.2;67.1
72226;BME280;60130;52.250;5.048;2023-02-26T19:10:00;389.6;;;4.2;67.1
72226;BME280;60130;52.250;5.048;2023-02-26T19:15:00;389.6;;;4.2;67.5
72226;BME280;60130;52.250;5.048;2023-02-26T19:20:00;389.6;;;4.2;67.5
72226;BME280;60130;52.250;5.048;2023-02-26T19:25:00;389.7;;;4.2;67.4
72226;BME280;60130;52.250;5.048;2023-02-26T19:30:00;389.7;;;4.2;67.6
72226;BME280;60130;52.250;5.048;2023-02-26T19:35:00;389.6;;;4.2;68.1
72226;BME280;60130;52.250;5.048;2023-02-26T19:40:00;389.6;;;4.2;68.1
72226;BME280;60130;52.250;5.048;2023-02-26T19:45:00;389.7;;;4.3;67.9
72226;BME280;60130;52.250;5.048;2023-02-26T19:50:00;389.7;;;4.3;68.0
72226;BME280;60130;52.250;5.048;2023-02-26T19:55:00;389.7;;;4.3;68.0
72226;BME280;60130;52.250;5.048;2023-02-26T20:00:00;389.7;;;4.3;68.0
72226;BME280;60130;52.250;5.048;2023-02-26T20:05:00;389.7;;;4.3;68.2
72226;BME280;60130;52.250;5.048;2023-02-26T20:10:00;389.8;;;4.4;68.1
72226;BME280;60130;52.250;5.048;2023-02-26T20:15:00;389.7;;;4.3;68.8
72226;BME280;60130;52.250;5.048;2023-02-26T20:20:00;389.7;;;4.2;69.4
72226;BME280;60130;52.250;5.048;2023-02-26T20:25:00;389.5;;;4.0;69.7
72226;BME280;60130;52.250;5.048;2023-02-26T20:30:00;389.5;;;3.9;70.0
72226;BME280;60130;52.250;5.048;2023-02-26T20:35:00;389.3;;;3.8;70.4
72226;BME280;60130;52.250;5.048;2023-02-26T20:40:00;389.3;;;3.8;70.6
72226;BME280;60130;52.250;5.048;2023-02-26T20:45:00;389.4;;;3.9;70.2
72226;BME280;60130;52.250;5.048;2023-02-26T20:50:00;389.6;;;4.1;69.6
72226;BME280;60130;52.250;5.048;2023-02-26T20:55:00;389.7;;;4.3;69.4
72226;BME280;60130;52.250;5.048;2023-02-26T21:00:00;389.7;;;4.3;69.2
72226;BME280;60130;52.250;5.048;2023-02-26T21:05:00;389.7;;;4.3;69.8
72226;BME280;60130;52.250;5.048;2023-02-26T21:10:00;389.7;;;4.3;69.7
72226;BME280;60130;52.250;5.048;2023-02-26T21:15:00;389.7;;;4.3;69.7
72226;BME280;60130;52.250;5.048;2023-02-26T21:20:00;389.6;;;4.2;69.5
72226;BME280;60130;52.250;5.048;2023-02-26T21:25:00;389.6;;;4.2;69.4
72226;BME280;60130;52.250;5.048;2023-02-26T21:30:00;389.6;;;4.2;69.6
72226;BME280;60130;52.250;5.048;2023-02-26T21:35:00;389.5;;;4.0;70.0
72226;BME280;60130;52.250;5.048;2023-02-26T21:40:00;unavailable;;;unavailable;unavailable
72226;BME280;60130;52.250;5.048;2023-02-26T21:45:00;unavailable;;;unavailable;unavailable
72226;BME280;60130;52.250;5.048;2023-02-26T21:50:00;unavailable;;;unavailable;unavailable
72226;BME280;60130;52.250;5.048;2023-02-26T21:55:00;389.5;;;4.0;70.4
72226;BME280;60130;52.250;5.048;2023-02-26T22:00:00;389.5;;;4.0;70.4
72226;BME280;60130;52.250;5.048;2023-02-26T22:05:00;389.5;;;3.9;70.4
72226;BME280;60130;52.250;5.048;2023-02-26T22:10:00;389.5;;;4.0;70.2
72226;BME280;60130;52.250;5.048;2023-02-26T22:15:00;389.5;;;4.0;70.2
72226;BME280;60130;52.250;5.048;2023-02-26T22:20:00;389.6;;;4.2;70.4
72226;BME280;60130;52.250;5.048;2023-02-26T22:25:00;389.6;;;4.2;70.5
72226;BME280;60130;52.250;5.048;2023-02-26T22:30:00;389.5;;;4.1;70.8
72226;BME280;60130;52.250;5.048;2023-02-26T22:35:00;389.6;;;4.2;70.7
72226;BME280;60130;52.250;5.048;2023-02-26T22:40:00;389.6;;;4.1;70.3
72226;BME280;60130;52.250;5.048;2023-02-26T22:45:00;389.6;;;4.1;70.5
72226;BME280;60130;52.250;5.048;2023-02-26T22:50:00;389.6;;;4.2;70.1
72226;BME280;60130;52.250;5.048;2023-02-26T22:55:00;389.6;;;4.2;70.0
72226;BME280;60130;52.250;5.048;2023-02-26T23:00:01;389.6;;;4.2;70.3
72226;BME280;60130;52.250;5.048;2023-02-26T23:05:00;389.6;;;4.2;70.6
72226;BME280;60130;52.250;5.048;2023-02-26T23:10:00;389.6;;;4.1;70.2
72226;BME280;60130;52.250;5.048;2023-02-26T23:15:00;unavailable;;;unavailable;unavailable
72226;BME280;60130;52.250;5.048;2023-02-26T23:20:00;unavailable;;;unavailable;unavailable
72226;BME280;60130;52.250;5.048;2023-02-26T23:25:00;unavailable;;;unavailable;unavailable
72226;BME280;60130;52.250;5.048;2023-02-26T23:30:00;389.6;;;4.1;69.6
72226;BME280;60130;52.250;5.048;2023-02-26T23:35:00;389.6;;;4.1;69.8
72226;BME280;60130;52.250;5.048;2023-02-26T23:40:00;389.6;;;4.1;69.4
72226;BME280;60130;52.250;5.048;2023-02-26T23:45:00;389.6;;;4.1;69.3
72226;BME280;60130;52.250;5.048;2023-02-26T23:50:00;389.6;;;4.1;69.6
72226;BME280;60130;52.250;5.048;2023-02-26T23:55:00;389.6;;;4.1;69.4
